createdAt,value
2023-03-26T00:01:33.726Z,0.40
2023-03-26T00:04:01.825Z,0.40
2023-03-26T00:06:36.773Z,0.40
2023-03-26T00:09:06.959Z,0.30
2023-03-26T00:11:34.829Z,0.43
2023-03-26T00:14:02.693Z,0.22
2023-03-26T00:16:31.408Z,0.40
2023-03-26T00:18:59.971Z,0.35
2023-03-26T00:21:29.237Z,0.30
2023-03-26T00:24:04.713Z,0.60
2023-03-26T00:26:37.647Z,0.30
2023-03-26T00:29:06.700Z,0.50
2023-03-26T00:31:34.771Z,0.10
2023-03-26T00:34:03.884Z,0.40
2023-03-26T00:36:32.137Z,0.50
2023-03-26T00:38:59.702Z,0.55
2023-03-26T00:41:30.847Z,0.20
2023-03-26T00:44:00.209Z,0.50
2023-03-26T00:46:30.612Z,0.40
2023-03-26T00:49:01.855Z,0.40
2023-03-26T00:51:30.080Z,0.40
2023-03-26T00:53:57.962Z,0.45
2023-03-26T00:56:26.183Z,0.50
2023-03-26T00:58:53.925Z,0.10
2023-03-26T01:01:27.315Z,0.60
2023-03-26T01:04:08.373Z,0.80
2023-03-26T01:06:41.243Z,0.55
2023-03-26T01:09:16.335Z,0.30
2023-03-26T01:11:44.235Z,0.30
2023-03-26T01:14:16.851Z,0.43
2023-03-26T01:16:56.696Z,0.50
2023-03-26T01:19:44.681Z,0.50
2023-03-26T01:22:18.014Z,0.37
2023-03-26T01:24:52.184Z,0.30
2023-03-26T01:27:34.594Z,0.20
2023-03-26T01:30:11.177Z,0.30
2023-03-26T01:32:57.780Z,0.40
2023-03-26T01:35:46.112Z,0.40
2023-03-26T01:38:13.490Z,0.20
2023-03-26T01:41:03.439Z,0.30
2023-03-26T01:43:33.723Z,0.28
2023-03-26T01:46:05.415Z,0.45
2023-03-26T01:48:38.559Z,0.55
2023-03-26T01:51:07.293Z,0.50
2023-03-26T01:53:38.406Z,0.50
2023-03-26T01:56:13.317Z,0.40
2023-03-26T01:59:05.753Z,0.50
2023-03-26T02:01:46.156Z,0.40
2023-03-26T02:04:48.169Z,0.40
2023-03-26T02:07:45.052Z,0.40
2023-03-26T02:10:21.556Z,0.45
2023-03-26T02:12:50.031Z,0.45
2023-03-26T02:15:17.614Z,0.50
2023-03-26T02:17:45.043Z,0.40
2023-03-26T02:20:14.310Z,0.40
2023-03-26T02:22:45.601Z,0.40
2023-03-26T02:25:18.945Z,0.30
2023-03-26T02:27:47.806Z,0.50
2023-03-26T02:30:21.664Z,0.57
2023-03-26T02:32:52.350Z,0.45
2023-03-26T02:35:21.914Z,0.55
2023-03-26T02:37:50.874Z,0.40
2023-03-26T02:40:21.180Z,0.47
2023-03-26T02:42:49.628Z,0.40
2023-03-26T02:45:17.319Z,0.50
2023-03-26T02:47:47.634Z,0.45
2023-03-26T02:50:16.921Z,0.47
2023-03-26T02:52:45.417Z,0.68
2023-03-26T02:55:12.884Z,0.40
2023-03-26T02:57:41.296Z,0.57
2023-03-26T03:00:11.074Z,0.50
2023-03-26T03:02:39.824Z,0.60
2023-03-26T03:05:09.226Z,0.70
2023-03-26T03:07:38.640Z,0.50
2023-03-26T03:10:09.984Z,0.90
2023-03-26T03:12:41.248Z,0.77
2023-03-26T03:15:09.288Z,0.70
2023-03-26T03:17:36.743Z,0.47
2023-03-26T03:20:06.869Z,0.85
2023-03-26T03:22:34.404Z,0.55
2023-03-26T03:25:02.658Z,0.60
2023-03-26T03:27:30.657Z,0.50
2023-03-26T03:29:59.039Z,0.60
2023-03-26T03:32:27.722Z,0.60
2023-03-26T03:34:56.494Z,0.70
2023-03-26T03:37:26.334Z,1.00
2023-03-26T03:39:54.187Z,0.88
2023-03-26T03:42:22.305Z,0.70
2023-03-26T03:44:50.591Z,0.70
2023-03-26T03:47:20.340Z,0.65
2023-03-26T03:49:48.325Z,0.73
2023-03-26T03:52:16.394Z,0.60
2023-03-26T03:54:43.829Z,0.62
2023-03-26T03:57:12.183Z,0.50
2023-03-26T03:59:47.903Z,0.77
2023-03-26T04:02:34.683Z,0.60
2023-03-26T04:05:04.416Z,0.70
2023-03-26T04:07:32.683Z,0.82
2023-03-26T04:10:08.329Z,0.90
2023-03-26T04:12:37.230Z,0.80
2023-03-26T04:15:05.905Z,0.68
2023-03-26T04:17:33.505Z,0.70
2023-03-26T04:20:14.505Z,0.80
2023-03-26T04:22:43.857Z,0.75
2023-03-26T04:25:12.467Z,0.93
2023-03-26T04:27:43.976Z,0.87
2023-03-26T04:30:15.702Z,0.75
2023-03-26T04:32:44.705Z,1.35
2023-03-26T04:35:16.767Z,2.20
2023-03-26T04:37:46.109Z,1.55
2023-03-26T04:40:18.360Z,1.37
2023-03-26T04:42:46.725Z,1.10
2023-03-26T04:45:17.751Z,1.40
2023-03-26T04:47:46.434Z,1.40
2023-03-26T04:50:14.726Z,1.08
2023-03-26T04:52:45.084Z,1.23
2023-03-26T04:56:06.449Z,1.23
2023-03-26T04:58:35.704Z,1.20
2023-03-26T05:01:10.277Z,1.12
2023-03-26T05:03:39.195Z,1.50
2023-03-26T05:06:09.982Z,1.00
2023-03-26T05:08:37.440Z,1.20
2023-03-26T05:11:11.361Z,1.30
2023-03-26T05:13:39.622Z,1.40
2023-03-26T05:16:08.678Z,1.30
2023-03-26T05:18:36.693Z,1.00
2023-03-26T05:21:05.355Z,1.30
2023-03-26T05:23:33.343Z,1.33
2023-03-26T05:26:01.710Z,4.37
2023-03-26T05:28:29.497Z,6.87
2023-03-26T05:30:57.217Z,5.03
2023-03-26T05:33:25.063Z,6.75
2023-03-26T05:36:05.597Z,5.25
2023-03-26T05:38:33.417Z,4.40
2023-03-26T05:41:03.789Z,3.50
2023-03-26T05:43:31.356Z,2.45
2023-03-26T05:45:59.235Z,2.08
2023-03-26T05:48:27.921Z,2.03
2023-03-26T05:50:57.695Z,2.53
2023-03-26T05:53:27.105Z,2.47
2023-03-26T05:56:06.455Z,2.08
2023-03-26T05:58:36.676Z,1.83
2023-03-26T06:01:08.407Z,2.30
2023-03-26T06:03:39.555Z,2.20
2023-03-26T06:06:09.741Z,1.90
2023-03-26T06:08:37.941Z,2.05
2023-03-26T06:11:08.086Z,1.70
2023-03-26T06:13:36.034Z,1.65
2023-03-26T06:16:03.853Z,1.70
2023-03-26T06:18:31.651Z,1.70
2023-03-26T06:20:59.578Z,2.05
2023-03-26T06:23:28.351Z,1.60
2023-03-26T06:25:56.208Z,0.90
2023-03-26T06:28:24.459Z,0.60
2023-03-26T06:30:52.827Z,0.60
2023-03-26T06:33:22.130Z,0.98
2023-03-26T06:35:51.486Z,1.25
2023-03-26T06:38:19.393Z,0.60
2023-03-26T06:40:47.006Z,0.65
2023-03-26T06:43:14.762Z,0.62
2023-03-26T06:45:43.589Z,0.75
2023-03-26T06:48:12.785Z,0.55
2023-03-26T06:50:40.837Z,0.88
2023-03-26T06:53:09.996Z,0.62
2023-03-26T06:55:38.296Z,0.82
2023-03-26T06:58:06.428Z,0.37
2023-03-26T07:00:35.837Z,0.70
2023-03-26T07:03:06.210Z,0.47
2023-03-26T07:05:43.114Z,0.57
2023-03-26T07:08:10.560Z,0.47
2023-03-26T07:10:39.310Z,0.62
2023-03-26T07:13:07.523Z,0.60
2023-03-26T07:15:35.867Z,1.00
2023-03-26T07:18:03.476Z,1.30
2023-03-26T07:20:31.455Z,0.90
2023-03-26T07:22:59.573Z,1.02
2023-03-26T07:25:29.198Z,0.98
2023-03-26T07:28:03.658Z,0.73
2023-03-26T07:30:50.583Z,0.90
2023-03-26T07:33:30.543Z,0.70
2023-03-26T07:36:12.660Z,0.80
2023-03-26T07:38:49.667Z,0.90
2023-03-26T07:41:29.394Z,0.70
2023-03-26T07:44:04.269Z,1.00
2023-03-26T07:46:37.061Z,0.93
2023-03-26T07:49:06.974Z,0.62
2023-03-26T07:51:35.104Z,0.93
2023-03-26T07:54:04.267Z,1.50
2023-03-26T07:56:49.413Z,1.23
2023-03-26T07:59:39.410Z,1.17
2023-03-26T08:02:27.239Z,0.95
2023-03-26T08:05:18.960Z,1.55
2023-03-26T08:08:02.837Z,1.17
2023-03-26T08:10:52.505Z,1.17
2023-03-26T08:13:25.448Z,1.40
2023-03-26T08:16:05.727Z,1.40
2023-03-26T08:18:47.610Z,0.95
2023-03-26T08:21:22.342Z,0.83
2023-03-26T08:24:07.995Z,1.08
2023-03-26T08:26:59.426Z,0.88
2023-03-26T08:29:45.230Z,0.70
2023-03-26T08:32:16.409Z,0.70
2023-03-26T08:34:43.898Z,0.93
2023-03-26T08:37:12.985Z,0.77
2023-03-26T08:39:42.034Z,0.70
2023-03-26T08:42:24.618Z,0.60
2023-03-26T08:45:29.404Z,0.75
2023-03-26T08:48:03.674Z,0.65
2023-03-26T08:50:49.833Z,1.23
2023-03-26T08:53:24.783Z,0.70
2023-03-26T08:56:22.049Z,0.90
2023-03-26T08:59:19.746Z,0.70
2023-03-26T09:02:19.759Z,0.70
2023-03-26T09:05:14.604Z,0.75
2023-03-26T09:08:01.719Z,1.00
2023-03-26T09:10:32.104Z,1.30
2023-03-26T09:13:24.267Z,0.82
2023-03-26T09:16:17.460Z,0.68
2023-03-26T09:19:22.617Z,0.70
2023-03-26T09:22:17.105Z,0.75
2023-03-26T09:25:04.768Z,1.08
2023-03-26T09:27:38.105Z,0.93
2023-03-26T09:30:30.259Z,0.62
2023-03-26T09:33:28.420Z,1.05
2023-03-26T09:36:08.476Z,1.00
2023-03-26T09:39:09.294Z,1.08
2023-03-26T09:42:09.578Z,0.80
2023-03-26T09:44:58.243Z,0.80
2023-03-26T09:47:26.282Z,0.85
2023-03-26T09:50:15.474Z,0.93
2023-03-26T09:53:09.314Z,0.90
2023-03-26T09:56:16.521Z,0.82
2023-03-26T09:58:46.959Z,1.10
2023-03-26T10:01:20.486Z,0.93
2023-03-26T10:04:06.987Z,1.20
2023-03-26T10:06:49.680Z,1.00
2023-03-26T10:09:36.055Z,0.70
2023-03-26T10:12:28.363Z,0.70
2023-03-26T10:14:59.038Z,1.10
2023-03-26T10:17:55.631Z,0.70
2023-03-26T10:20:38.043Z,1.20
2023-03-26T10:23:18.528Z,0.80
2023-03-26T10:26:17.354Z,0.93
2023-03-26T10:29:13.046Z,1.20
2023-03-26T10:32:24.029Z,1.00
2023-03-26T10:34:57.039Z,2.58
2023-03-26T10:37:37.074Z,1.50
2023-03-26T10:40:23.654Z,1.50
2023-03-26T10:43:29.651Z,1.08
2023-03-26T10:46:09.780Z,0.90
2023-03-26T10:48:56.525Z,0.50
2023-03-26T10:51:48.819Z,1.30
2023-03-26T10:57:54.225Z,0.60
2023-03-26T11:00:27.034Z,1.10
2023-03-26T11:03:16.052Z,0.65
2023-03-26T11:05:46.709Z,1.00
2023-03-26T11:08:56.037Z,0.85
2023-03-26T11:11:42.180Z,0.90
2023-03-26T11:14:33.896Z,1.00
2023-03-26T11:17:08.502Z,1.12
2023-03-26T11:19:53.135Z,1.00
2023-03-26T11:22:30.043Z,1.10
2023-03-26T11:25:05.425Z,0.80
2023-03-26T11:27:40.518Z,0.90
2023-03-26T11:30:17.027Z,1.30
2023-03-26T11:32:46.461Z,1.00
2023-03-26T11:35:40.939Z,1.00
2023-03-26T11:38:23.281Z,1.20
2023-03-26T11:40:53.329Z,1.02
2023-03-26T11:43:32.035Z,1.02
2023-03-26T11:45:59.530Z,0.93
2023-03-26T11:48:44.398Z,0.93
2023-03-26T11:51:18.773Z,1.30
2023-03-26T11:53:46.780Z,1.00
2023-03-26T11:56:18.304Z,1.05
2023-03-26T11:59:08.905Z,1.10
2023-03-26T12:01:56.564Z,0.85
2023-03-26T12:04:34.997Z,0.50
2023-03-26T12:07:23.814Z,0.60
2023-03-26T12:09:52.950Z,0.40
2023-03-26T12:12:20.985Z,0.40
2023-03-26T12:14:48.540Z,1.12
2023-03-26T12:17:31.913Z,2.58
2023-03-26T12:20:01.127Z,3.00
2023-03-26T12:22:38.530Z,1.70
2023-03-26T12:25:25.912Z,0.40
2023-03-26T12:28:04.807Z,0.40
2023-03-26T12:30:39.621Z,0.50
2023-03-26T12:33:16.293Z,0.50
2023-03-26T12:35:44.071Z,0.32
2023-03-26T12:38:37.263Z,0.40
2023-03-26T12:41:08.018Z,0.40
2023-03-26T12:44:49.858Z,0.60
2023-03-26T12:47:54.377Z,0.62
2023-03-26T12:49:18.799Z,0.67
2023-03-26T12:52:25.212Z,0.47
2023-03-26T12:54:55.923Z,2.58
2023-03-26T12:57:25.271Z,3.80
2023-03-26T13:00:21.353Z,10.40
2023-03-26T13:03:05.678Z,1.70
2023-03-26T13:05:55.434Z,0.60
2023-03-26T13:08:46.601Z,3.00
2023-03-26T13:11:27.529Z,11.00
2023-03-26T13:14:10.644Z,1.10
2023-03-26T13:17:04.961Z,0.68
2023-03-26T13:19:53.947Z,0.75
2023-03-26T13:22:42.487Z,1.00
2023-03-26T13:25:25.679Z,0.65
2023-03-26T13:27:56.361Z,0.30
2023-03-26T13:30:52.339Z,0.40
2023-03-26T13:33:43.344Z,0.30
2023-03-26T13:36:23.114Z,0.30
2023-03-26T13:39:10.897Z,0.50
2023-03-26T13:41:50.084Z,0.32
2023-03-26T13:44:52.737Z,0.40
2023-03-26T13:47:36.692Z,0.40
2023-03-26T13:50:29.094Z,0.30
2023-03-26T13:53:02.220Z,0.40
2023-03-26T13:55:40.120Z,0.50
2023-03-26T13:58:10.881Z,0.37
2023-03-26T14:00:41.962Z,0.30
2023-03-26T14:03:26.379Z,0.50
2023-03-26T14:05:55.940Z,0.30
2023-03-26T14:08:31.663Z,0.30
2023-03-26T14:11:44.377Z,0.45
2023-03-26T14:14:32.293Z,0.20
2023-03-26T14:17:05.674Z,0.20
2023-03-26T14:19:40.319Z,0.40
2023-03-26T14:22:18.264Z,0.57
2023-03-26T14:25:08.593Z,0.30
2023-03-26T14:28:13.983Z,0.30
2023-03-26T14:31:20.744Z,0.68
2023-03-26T14:34:17.655Z,0.90
2023-03-26T14:37:28.094Z,0.45
2023-03-26T14:40:20.490Z,0.60
2023-03-26T14:43:12.766Z,0.20
2023-03-26T14:46:11.011Z,0.15
2023-03-26T14:48:48.335Z,0.82
2023-03-26T14:51:41.458Z,0.90
2023-03-26T14:54:13.286Z,0.50
2023-03-26T14:56:50.082Z,0.20
2023-03-26T14:59:29.511Z,0.30
2023-03-26T15:02:22.284Z,0.37
2023-03-26T15:04:49.732Z,0.50
2023-03-26T15:07:36.112Z,0.60
2023-03-26T15:10:22.698Z,0.70
2023-03-26T15:13:21.622Z,0.60
2023-03-26T15:15:55.318Z,0.37
2023-03-26T15:18:32.305Z,0.40
2023-03-26T15:21:24.692Z,0.40
2023-03-26T15:24:13.414Z,0.60
2023-03-26T15:27:01.090Z,0.50
2023-03-26T15:29:40.559Z,0.40
2023-03-26T15:32:26.753Z,0.20
2023-03-26T15:35:16.939Z,0.60
2023-03-26T15:38:12.614Z,0.57
2023-03-26T15:41:01.628Z,0.25
2023-03-26T15:44:23.618Z,0.30
2023-03-26T15:47:15.578Z,0.43
2023-03-26T15:49:59.207Z,0.77
2023-03-26T15:52:32.499Z,2.00
2023-03-26T15:54:59.846Z,1.33
2023-03-26T15:57:44.075Z,1.75
2023-03-26T16:00:22.192Z,2.15
2023-03-26T16:03:10.908Z,1.17
2023-03-26T16:05:57.284Z,0.80
2023-03-26T16:08:47.005Z,0.68
2023-03-26T16:11:15.402Z,1.20
2023-03-26T16:13:49.508Z,0.90
2023-03-26T16:16:24.894Z,0.62
2023-03-26T16:18:58.988Z,0.93
2023-03-26T16:21:36.490Z,0.60
2023-03-26T16:24:07.363Z,0.70
2023-03-26T16:26:43.626Z,1.17
2023-03-26T16:29:18.139Z,1.08
2023-03-26T16:32:10.546Z,1.08
2023-03-26T16:34:42.775Z,1.17
2023-03-26T16:37:32.216Z,1.00
2023-03-26T16:40:22.278Z,0.93
2023-03-26T16:43:20.113Z,1.08
2023-03-26T16:45:57.031Z,2.15
2023-03-26T16:48:49.132Z,1.20
2023-03-26T16:51:22.380Z,1.85
2023-03-26T16:54:13.356Z,2.12
2023-03-26T16:56:47.463Z,2.08
2023-03-26T16:59:42.991Z,1.77
2023-03-26T17:02:19.840Z,1.40
2023-03-26T17:04:50.737Z,1.40
2023-03-26T17:07:24.243Z,1.37
2023-03-26T17:10:08.710Z,1.50
2023-03-26T17:13:10.921Z,1.48
2023-03-26T17:16:12.763Z,1.53
2023-03-26T17:18:55.734Z,1.40
2023-03-26T17:21:46.318Z,1.70
2023-03-26T17:24:33.844Z,2.30
2023-03-26T17:27:26.597Z,1.83
2023-03-26T17:30:16.105Z,2.10
2023-03-26T17:33:13.599Z,2.15
2023-03-26T17:35:46.454Z,1.87
2023-03-26T17:38:16.763Z,1.80
2023-03-26T17:41:00.637Z,2.12
2023-03-26T17:43:51.421Z,2.50
2023-03-26T17:46:37.998Z,2.62
2023-03-26T17:49:31.483Z,2.42
2023-03-26T17:52:02.058Z,2.75
2023-03-26T17:54:44.168Z,2.75
2023-03-26T17:59:59.073Z,2.22
2023-03-26T18:02:43.656Z,2.33
2023-03-26T18:05:13.713Z,2.10
2023-03-26T18:08:19.755Z,2.25
2023-03-26T18:11:05.459Z,2.22
2023-03-26T18:14:02.791Z,1.85
2023-03-26T18:16:44.236Z,2.05
2023-03-26T18:19:19.843Z,2.10
2023-03-26T18:21:53.350Z,2.45
2023-03-26T18:24:30.289Z,2.37
2023-03-26T18:27:03.611Z,2.67
2023-03-26T18:29:33.355Z,2.90
2023-03-26T18:32:03.900Z,2.65
2023-03-26T18:34:34.058Z,3.17
2023-03-26T18:37:08.518Z,3.40
2023-03-26T18:39:36.568Z,3.50
2023-03-26T18:42:06.009Z,2.60
2023-03-26T18:44:36.706Z,2.97
2023-03-26T18:47:06.453Z,2.97
2023-03-26T18:49:33.936Z,2.72
2023-03-26T18:52:01.376Z,2.90
2023-03-26T18:54:33.846Z,2.60
2023-03-26T19:02:13.911Z,3.28
2023-03-26T19:04:46.123Z,3.47
2023-03-26T19:07:18.075Z,3.33
2023-03-26T19:09:45.580Z,3.60
2023-03-26T19:12:25.207Z,3.95
2023-03-26T19:15:07.783Z,4.15
2023-03-26T19:17:40.781Z,3.95
2023-03-26T19:20:16.742Z,3.90
2023-03-26T19:22:45.398Z,3.28
2023-03-26T19:25:21.689Z,3.47
2023-03-26T19:27:50.691Z,4.00
2023-03-26T19:30:28.488Z,4.90
2023-03-26T19:32:56.617Z,3.95
2023-03-26T19:35:42.557Z,4.28
2023-03-26T19:38:29.697Z,3.97
2023-03-26T19:40:58.112Z,4.30
2023-03-26T19:43:26.219Z,4.72
2023-03-26T19:46:00.352Z,4.10
2023-03-26T19:48:45.264Z,5.55
2023-03-26T19:51:31.546Z,4.45
2023-03-26T19:54:03.067Z,4.78
2023-03-26T19:56:30.817Z,4.00
2023-03-26T19:58:59.190Z,4.37
2023-03-26T20:01:29.203Z,4.78
2023-03-26T20:04:00.898Z,4.07
2023-03-26T20:06:41.491Z,3.87
2023-03-26T20:11:39.708Z,3.25
2023-03-26T20:14:13.018Z,2.65
2023-03-26T20:16:42.810Z,3.08
2023-03-26T20:19:11.424Z,2.83
2023-03-26T20:21:40.245Z,2.90
2023-03-26T20:24:12.948Z,3.00
2023-03-26T20:26:40.642Z,3.00
2023-03-26T20:29:08.349Z,3.20
2023-03-26T20:31:35.922Z,2.92
2023-03-26T20:34:03.564Z,3.15
2023-03-26T20:36:34.256Z,3.47
2023-03-26T20:39:08.441Z,3.10
2023-03-26T20:41:42.769Z,3.50
2023-03-26T20:44:15.956Z,3.40
2023-03-26T20:46:45.369Z,3.40
2023-03-26T20:49:12.934Z,3.42
2023-03-26T20:51:42.022Z,3.97
2023-03-26T20:54:30.335Z,3.85
2023-03-26T20:56:58.145Z,4.50
2023-03-26T20:59:28.005Z,3.67
2023-03-26T21:01:56.979Z,3.65
2023-03-26T21:04:26.144Z,4.10
2023-03-26T21:07:00.295Z,4.00
2023-03-26T21:09:34.791Z,4.07
2023-03-26T21:12:06.016Z,4.15
2023-03-26T21:14:41.424Z,4.45
2023-03-26T21:17:22.261Z,3.80
2023-03-26T21:19:50.124Z,3.83
2023-03-26T21:22:41.172Z,2.42
2023-03-26T21:25:22.797Z,2.50
2023-03-26T21:28:09.167Z,2.12
2023-03-26T21:30:37.441Z,2.42
2023-03-26T21:33:06.243Z,2.15
2023-03-26T21:35:34.771Z,2.05
2023-03-26T21:38:04.725Z,1.75
2023-03-26T21:40:33.075Z,1.85
2023-03-26T21:43:01.063Z,2.03
2023-03-26T21:45:28.831Z,2.72
2023-03-26T21:47:57.032Z,1.92
2023-03-26T21:50:24.782Z,1.90
2023-03-26T21:52:52.627Z,1.58
2023-03-26T21:55:22.764Z,1.98
2023-03-26T21:58:13.198Z,1.60
2023-03-26T22:01:13.310Z,1.73
2023-03-26T22:03:47.001Z,1.80
2023-03-26T22:06:25.744Z,1.35
2023-03-26T22:08:53.553Z,1.25
2023-03-26T22:11:20.966Z,1.33
2023-03-26T22:13:48.391Z,1.25
2023-03-26T22:16:18.777Z,1.25
2023-03-26T22:18:46.244Z,0.80
2023-03-26T22:21:14.098Z,1.02
2023-03-26T22:23:41.831Z,0.90
2023-03-26T22:26:09.518Z,1.20
2023-03-26T22:28:37.199Z,1.10
2023-03-26T22:31:08.278Z,0.85
2023-03-26T22:33:36.070Z,1.00
2023-03-26T22:36:03.626Z,1.27
2023-03-26T22:38:31.336Z,1.17
2023-03-26T22:40:58.974Z,1.10
2023-03-26T22:43:26.514Z,1.12
2023-03-26T22:45:55.011Z,1.23
2023-03-26T22:48:23.813Z,1.45
2023-03-26T22:51:05.459Z,1.17
2023-03-26T22:53:33.138Z,1.27
2023-03-26T22:56:00.773Z,1.60
2023-03-26T22:58:28.623Z,1.17
2023-03-26T23:01:14.565Z,1.10
2023-03-26T23:03:43.038Z,1.55
2023-03-26T23:06:12.046Z,1.05
2023-03-26T23:08:40.055Z,1.40
2023-03-26T23:11:13.172Z,1.00
2023-03-26T23:13:41.720Z,1.10
2023-03-26T23:16:10.232Z,1.10
2023-03-26T23:18:38.150Z,0.88
2023-03-26T23:21:12.006Z,0.80
2023-03-26T23:23:39.955Z,1.20
2023-03-26T23:26:07.717Z,1.35
2023-03-26T23:28:35.655Z,0.80
2023-03-26T23:31:05.583Z,0.98
2023-03-26T23:33:35.383Z,1.00
2023-03-26T23:36:08.800Z,0.85
2023-03-26T23:38:43.422Z,0.95
2023-03-26T23:41:14.837Z,1.05
2023-03-26T23:43:54.878Z,1.27
2023-03-26T23:46:25.118Z,1.05
2023-03-26T23:48:53.250Z,1.12
2023-03-26T23:51:21.533Z,0.90
2023-03-26T23:53:49.530Z,1.30
2023-03-26T23:56:17.566Z,1.50
2023-03-26T23:58:45.254Z,1.10
